sensor_id;sensor_type;location;lat;lon;timestamp;P1;durP1;ratioP1;P2;durP2;ratioP2
22298;SDS011;11317;51.072;17.036;2022-12-18T00:00:47;22.00;;;9.20;;
22298;SDS011;11317;51.072;17.036;2022-12-18T00:03:14;27.42;;;10.20;;
22298;SDS011;11317;51.072;17.036;2022-12-18T00:05:49;22.95;;;9.30;;
22298;SDS011;11317;51.072;17.036;2022-12-18T00:08:16;23.50;;;9.23;;
22298;SDS011;11317;51.072;17.036;2022-12-18T00:10:43;21.90;;;8.48;;
22298;SDS011;11317;51.072;17.036;2022-12-18T00:13:09;23.52;;;9.20;;
22298;SDS011;11317;51.072;17.036;2022-12-18T00:15:36;23.55;;;9.23;;
22298;SDS011;11317;51.072;17.036;2022-12-18T00:18:03;22.10;;;8.65;;
22298;SDS011;11317;51.072;17.036;2022-12-18T00:20:29;24.27;;;8.52;;
22298;SDS011;11317;51.072;17.036;2022-12-18T00:22:55;29.60;;;8.63;;
22298;SDS011;11317;51.072;17.036;2022-12-18T00:25:21;27.13;;;9.68;;
22298;SDS011;11317;51.072;17.036;2022-12-18T00:27:47;23.95;;;8.32;;
22298;SDS011;11317;51.072;17.036;2022-12-18T00:30:14;19.65;;;8.40;;
22298;SDS011;11317;51.072;17.036;2022-12-18T00:32:40;20.67;;;8.18;;
22298;SDS011;11317;51.072;17.036;2022-12-18T00:35:06;22.02;;;9.23;;
22298;SDS011;11317;51.072;17.036;2022-12-18T00:37:35;24.17;;;9.27;;
22298;SDS011;11317;51.072;17.036;2022-12-18T00:40:01;28.20;;;9.70;;
22298;SDS011;11317;51.072;17.036;2022-12-18T00:42:28;25.50;;;8.77;;
22298;SDS011;11317;51.072;17.036;2022-12-18T00:45:12;18.77;;;7.97;;
22298;SDS011;11317;51.072;17.036;2022-12-18T00:47:38;25.08;;;9.68;;
22298;SDS011;11317;51.072;17.036;2022-12-18T00:50:05;17.90;;;8.57;;
22298;SDS011;11317;51.072;17.036;2022-12-18T00:52:31;23.23;;;8.60;;
22298;SDS011;11317;51.072;17.036;2022-12-18T00:54:57;22.33;;;7.85;;
22298;SDS011;11317;51.072;17.036;2022-12-18T00:57:23;25.70;;;8.15;;
22298;SDS011;11317;51.072;17.036;2022-12-18T00:59:49;15.57;;;6.90;;
22298;SDS011;11317;51.072;17.036;2022-12-18T01:02:15;24.17;;;8.50;;
22298;SDS011;11317;51.072;17.036;2022-12-18T01:04:41;22.48;;;7.50;;
22298;SDS011;11317;51.072;17.036;2022-12-18T01:07:07;25.95;;;7.55;;
22298;SDS011;11317;51.072;17.036;2022-12-18T01:09:33;26.88;;;7.32;;
22298;SDS011;11317;51.072;17.036;2022-12-18T01:11:59;20.55;;;7.80;;
22298;SDS011;11317;51.072;17.036;2022-12-18T01:14:25;18.10;;;7.72;;
22298;SDS011;11317;51.072;17.036;2022-12-18T01:16:51;21.65;;;7.60;;
22298;SDS011;11317;51.072;17.036;2022-12-18T01:19:17;22.05;;;7.80;;
22298;SDS011;11317;51.072;17.036;2022-12-18T01:21:43;22.08;;;8.10;;
22298;SDS011;11317;51.072;17.036;2022-12-18T01:24:10;19.13;;;8.35;;
22298;SDS011;11317;51.072;17.036;2022-12-18T01:26:37;24.90;;;8.32;;
22298;SDS011;11317;51.072;17.036;2022-12-18T01:29:03;23.08;;;8.68;;
22298;SDS011;11317;51.072;17.036;2022-12-18T01:31:30;19.70;;;8.23;;
22298;SDS011;11317;51.072;17.036;2022-12-18T01:33:57;19.25;;;8.75;;
22298;SDS011;11317;51.072;17.036;2022-12-18T01:36:27;21.08;;;9.07;;
22298;SDS011;11317;51.072;17.036;2022-12-18T01:38:54;24.20;;;8.55;;
22298;SDS011;11317;51.072;17.036;2022-12-18T01:41:22;18.42;;;8.02;;
22298;SDS011;11317;51.072;17.036;2022-12-18T01:43:51;25.88;;;8.45;;
22298;SDS011;11317;51.072;17.036;2022-12-18T01:46:26;19.30;;;8.18;;
22298;SDS011;11317;51.072;17.036;2022-12-18T01:48:53;24.17;;;7.50;;
22298;SDS011;11317;51.072;17.036;2022-12-18T01:51:26;25.70;;;8.20;;
22298;SDS011;11317;51.072;17.036;2022-12-18T01:53:54;19.98;;;8.52;;
22298;SDS011;11317;51.072;17.036;2022-12-18T01:56:21;23.63;;;8.23;;
22298;SDS011;11317;51.072;17.036;2022-12-18T01:58:52;21.40;;;7.40;;
22298;SDS011;11317;51.072;17.036;2022-12-18T02:01:23;23.52;;;7.72;;
22298;SDS011;11317;51.072;17.036;2022-12-18T02:03:50;18.45;;;7.18;;
22298;SDS011;11317;51.072;17.036;2022-12-18T02:06:19;21.15;;;7.47;;
22298;SDS011;11317;51.072;17.036;2022-12-18T02:09:02;17.33;;;6.68;;
22298;SDS011;11317;51.072;17.036;2022-12-18T02:11:49;19.23;;;7.18;;
22298;SDS011;11317;51.072;17.036;2022-12-18T02:14:40;18.75;;;7.68;;
22298;SDS011;11317;51.072;17.036;2022-12-18T02:17:18;20.27;;;7.38;;
22298;SDS011;11317;51.072;17.036;2022-12-18T02:27:54;18.80;;;7.35;;
22298;SDS011;11317;51.072;17.036;2022-12-18T02:30:24;19.35;;;6.93;;
22298;SDS011;11317;51.072;17.036;2022-12-18T02:32:52;24.08;;;8.98;;
22298;SDS011;11317;51.072;17.036;2022-12-18T02:35:20;25.10;;;8.77;;
22298;SDS011;11317;51.072;17.036;2022-12-18T02:37:49;16.80;;;6.22;;
22298;SDS011;11317;51.072;17.036;2022-12-18T02:40:19;27.88;;;8.52;;
22298;SDS011;11317;51.072;17.036;2022-12-18T02:42:48;20.55;;;7.13;;
22298;SDS011;11317;51.072;17.036;2022-12-18T02:45:14;19.33;;;7.75;;
22298;SDS011;11317;51.072;17.036;2022-12-18T02:47:42;20.83;;;7.93;;
22298;SDS011;11317;51.072;17.036;2022-12-18T02:55:37;14.02;;;7.63;;
22298;SDS011;11317;51.072;17.036;2022-12-18T03:00:57;20.38;;;7.70;;
22298;SDS011;11317;51.072;17.036;2022-12-18T03:06:24;23.98;;;8.77;;
22298;SDS011;11317;51.072;17.036;2022-12-18T03:08:59;19.48;;;7.88;;
22298;SDS011;11317;51.072;17.036;2022-12-18T03:11:28;21.55;;;7.93;;
22298;SDS011;11317;51.072;17.036;2022-12-18T03:14:15;22.00;;;7.57;;
22298;SDS011;11317;51.072;17.036;2022-12-18T03:16:43;18.15;;;8.13;;
22298;SDS011;11317;51.072;17.036;2022-12-18T03:19:11;21.13;;;8.73;;
22298;SDS011;11317;51.072;17.036;2022-12-18T03:21:47;26.85;;;8.85;;
22298;SDS011;11317;51.072;17.036;2022-12-18T03:24:17;22.35;;;8.15;;
22298;SDS011;11317;51.072;17.036;2022-12-18T03:26:45;19.48;;;7.78;;
22298;SDS011;11317;51.072;17.036;2022-12-18T03:29:21;23.83;;;8.63;;
22298;SDS011;11317;51.072;17.036;2022-12-18T03:32:12;28.67;;;8.82;;
22298;SDS011;11317;51.072;17.036;2022-12-18T03:34:44;21.42;;;8.25;;
22298;SDS011;11317;51.072;17.036;2022-12-18T03:37:14;25.65;;;7.90;;
22298;SDS011;11317;51.072;17.036;2022-12-18T03:39:40;18.88;;;6.93;;
22298;SDS011;11317;51.072;17.036;2022-12-18T03:44:35;20.55;;;7.38;;
22298;SDS011;11317;51.072;17.036;2022-12-18T03:47:09;19.25;;;7.88;;
22298;SDS011;11317;51.072;17.036;2022-12-18T03:49:45;27.73;;;9.32;;
22298;SDS011;11317;51.072;17.036;2022-12-18T03:52:26;16.88;;;7.13;;
22298;SDS011;11317;51.072;17.036;2022-12-18T03:55:02;19.55;;;8.30;;
22298;SDS011;11317;51.072;17.036;2022-12-18T03:57:30;19.10;;;7.47;;
22298;SDS011;11317;51.072;17.036;2022-12-18T03:59:59;22.17;;;8.38;;
22298;SDS011;11317;51.072;17.036;2022-12-18T04:02:29;30.70;;;9.27;;
22298;SDS011;11317;51.072;17.036;2022-12-18T04:04:57;18.25;;;7.72;;
22298;SDS011;11317;51.072;17.036;2022-12-18T04:07:25;16.65;;;6.40;;
22298;SDS011;11317;51.072;17.036;2022-12-18T04:09:53;20.85;;;7.47;;
22298;SDS011;11317;51.072;17.036;2022-12-18T04:12:23;26.67;;;8.02;;
22298;SDS011;11317;51.072;17.036;2022-12-18T04:14:51;20.92;;;8.52;;
22298;SDS011;11317;51.072;17.036;2022-12-18T04:17:17;22.67;;;8.60;;
22298;SDS011;11317;51.072;17.036;2022-12-18T04:19:43;19.58;;;8.13;;
22298;SDS011;11317;51.072;17.036;2022-12-18T04:22:10;18.33;;;7.50;;
22298;SDS011;11317;51.072;17.036;2022-12-18T04:24:36;26.20;;;8.38;;
22298;SDS011;11317;51.072;17.036;2022-12-18T04:27:02;19.77;;;8.50;;
22298;SDS011;11317;51.072;17.036;2022-12-18T04:29:28;14.02;;;7.10;;
22298;SDS011;11317;51.072;17.036;2022-12-18T04:31:54;31.55;;;8.90;;
22298;SDS011;11317;51.072;17.036;2022-12-18T04:34:20;24.40;;;8.63;;
22298;SDS011;11317;51.072;17.036;2022-12-18T04:36:46;24.45;;;10.05;;
22298;SDS011;11317;51.072;17.036;2022-12-18T04:39:12;22.10;;;6.75;;
22298;SDS011;11317;51.072;17.036;2022-12-18T04:41:39;26.85;;;9.38;;
22298;SDS011;11317;51.072;17.036;2022-12-18T04:44:06;29.80;;;9.32;;
22298;SDS011;11317;51.072;17.036;2022-12-18T04:46:31;19.75;;;7.72;;
22298;SDS011;11317;51.072;17.036;2022-12-18T04:48:57;24.15;;;8.80;;
22298;SDS011;11317;51.072;17.036;2022-12-18T04:51:23;21.88;;;8.38;;
22298;SDS011;11317;51.072;17.036;2022-12-18T04:53:49;20.67;;;8.63;;
22298;SDS011;11317;51.072;17.036;2022-12-18T04:56:15;18.67;;;6.75;;
22298;SDS011;11317;51.072;17.036;2022-12-18T04:58:42;21.38;;;7.38;;
22298;SDS011;11317;51.072;17.036;2022-12-18T05:01:09;22.52;;;8.77;;
22298;SDS011;11317;51.072;17.036;2022-12-18T05:03:36;29.33;;;9.10;;
22298;SDS011;11317;51.072;17.036;2022-12-18T05:06:03;19.50;;;7.28;;
22298;SDS011;11317;51.072;17.036;2022-12-18T05:08:30;19.58;;;7.40;;
22298;SDS011;11317;51.072;17.036;2022-12-18T05:10:59;22.98;;;8.07;;
22298;SDS011;11317;51.072;17.036;2022-12-18T05:13:27;23.65;;;9.13;;
22298;SDS011;11317;51.072;17.036;2022-12-18T05:15:53;20.77;;;7.60;;
22298;SDS011;11317;51.072;17.036;2022-12-18T05:18:19;25.10;;;9.45;;
22298;SDS011;11317;51.072;17.036;2022-12-18T05:20:45;21.30;;;7.50;;
22298;SDS011;11317;51.072;17.036;2022-12-18T05:23:12;15.23;;;6.30;;
22298;SDS011;11317;51.072;17.036;2022-12-18T05:25:38;17.90;;;7.57;;
22298;SDS011;11317;51.072;17.036;2022-12-18T05:28:04;14.90;;;7.85;;
22298;SDS011;11317;51.072;17.036;2022-12-18T05:30:30;19.60;;;7.68;;
22298;SDS011;11317;51.072;17.036;2022-12-18T05:32:56;18.38;;;7.60;;
22298;SDS011;11317;51.072;17.036;2022-12-18T05:35:22;14.27;;;7.10;;
22298;SDS011;11317;51.072;17.036;2022-12-18T05:37:48;24.20;;;8.55;;
22298;SDS011;11317;51.072;17.036;2022-12-18T05:40:14;22.48;;;9.43;;
22298;SDS011;11317;51.072;17.036;2022-12-18T05:42:40;19.08;;;7.70;;
22298;SDS011;11317;51.072;17.036;2022-12-18T05:45:06;20.27;;;7.68;;
22298;SDS011;11317;51.072;17.036;2022-12-18T05:47:32;23.10;;;9.57;;
22298;SDS011;11317;51.072;17.036;2022-12-18T05:49:58;21.95;;;8.77;;
22298;SDS011;11317;51.072;17.036;2022-12-18T05:52:24;20.27;;;8.88;;
22298;SDS011;11317;51.072;17.036;2022-12-18T05:54:50;19.08;;;9.90;;
22298;SDS011;11317;51.072;17.036;2022-12-18T05:57:16;23.42;;;10.00;;
22298;SDS011;11317;51.072;17.036;2022-12-18T05:59:43;24.05;;;9.73;;
22298;SDS011;11317;51.072;17.036;2022-12-18T06:02:09;19.80;;;9.93;;
22298;SDS011;11317;51.072;17.036;2022-12-18T06:04:35;28.17;;;10.23;;
22298;SDS011;11317;51.072;17.036;2022-12-18T06:07:04;25.30;;;9.73;;
22298;SDS011;11317;51.072;17.036;2022-12-18T06:09:30;27.70;;;9.00;;
22298;SDS011;11317;51.072;17.036;2022-12-18T06:11:56;28.08;;;10.95;;
22298;SDS011;11317;51.072;17.036;2022-12-18T06:14:22;24.60;;;10.13;;
22298;SDS011;11317;51.072;17.036;2022-12-18T06:16:50;30.23;;;11.15;;
22298;SDS011;11317;51.072;17.036;2022-12-18T06:19:17;26.70;;;10.70;;
22298;SDS011;11317;51.072;17.036;2022-12-18T06:21:43;28.67;;;11.45;;
22298;SDS011;11317;51.072;17.036;2022-12-18T06:24:09;26.85;;;9.88;;
22298;SDS011;11317;51.072;17.036;2022-12-18T06:26:37;25.63;;;11.80;;
22298;SDS011;11317;51.072;17.036;2022-12-18T06:29:04;23.85;;;9.20;;
22298;SDS011;11317;51.072;17.036;2022-12-18T06:31:30;33.58;;;11.13;;
22298;SDS011;11317;51.072;17.036;2022-12-18T06:33:56;22.70;;;9.90;;
22298;SDS011;11317;51.072;17.036;2022-12-18T06:36:22;33.58;;;11.48;;
22298;SDS011;11317;51.072;17.036;2022-12-18T06:38:48;33.53;;;13.30;;
22298;SDS011;11317;51.072;17.036;2022-12-18T06:41:18;28.10;;;11.15;;
22298;SDS011;11317;51.072;17.036;2022-12-18T06:43:45;34.72;;;11.70;;
22298;SDS011;11317;51.072;17.036;2022-12-18T06:46:11;31.50;;;12.13;;
22298;SDS011;11317;51.072;17.036;2022-12-18T06:48:37;34.70;;;12.30;;
22298;SDS011;11317;51.072;17.036;2022-12-18T06:51:03;23.92;;;10.93;;
22298;SDS011;11317;51.072;17.036;2022-12-18T06:53:29;21.50;;;10.60;;
22298;SDS011;11317;51.072;17.036;2022-12-18T06:55:59;31.23;;;10.95;;
22298;SDS011;11317;51.072;17.036;2022-12-18T06:58:31;25.85;;;10.98;;
22298;SDS011;11317;51.072;17.036;2022-12-18T07:01:01;30.42;;;11.15;;
22298;SDS011;11317;51.072;17.036;2022-12-18T07:03:31;30.33;;;11.40;;
22298;SDS011;11317;51.072;17.036;2022-12-18T07:05:57;33.53;;;11.52;;
22298;SDS011;11317;51.072;17.036;2022-12-18T07:08:23;25.10;;;11.55;;
22298;SDS011;11317;51.072;17.036;2022-12-18T07:10:49;27.60;;;10.00;;
22298;SDS011;11317;51.072;17.036;2022-12-18T07:13:15;25.88;;;11.50;;
22298;SDS011;11317;51.072;17.036;2022-12-18T07:15:42;29.42;;;10.98;;
22298;SDS011;11317;51.072;17.036;2022-12-18T07:18:08;28.10;;;10.68;;
22298;SDS011;11317;51.072;17.036;2022-12-18T07:20:34;29.70;;;12.45;;
22298;SDS011;11317;51.072;17.036;2022-12-18T07:23:02;33.33;;;11.32;;
22298;SDS011;11317;51.072;17.036;2022-12-18T07:25:28;23.95;;;12.30;;
22298;SDS011;11317;51.072;17.036;2022-12-18T07:27:54;33.00;;;12.95;;
22298;SDS011;11317;51.072;17.036;2022-12-18T07:30:20;31.65;;;11.23;;
22298;SDS011;11317;51.072;17.036;2022-12-18T07:32:46;32.42;;;13.30;;
22298;SDS011;11317;51.072;17.036;2022-12-18T07:35:12;36.83;;;13.98;;
22298;SDS011;11317;51.072;17.036;2022-12-18T07:37:38;32.33;;;13.43;;
22298;SDS011;11317;51.072;17.036;2022-12-18T07:40:05;27.17;;;11.00;;
22298;SDS011;11317;51.072;17.036;2022-12-18T07:42:31;26.95;;;10.52;;
22298;SDS011;11317;51.072;17.036;2022-12-18T07:45:01;33.50;;;12.88;;
22298;SDS011;11317;51.072;17.036;2022-12-18T07:47:27;21.63;;;10.50;;
22298;SDS011;11317;51.072;17.036;2022-12-18T07:49:53;28.23;;;11.32;;
22298;SDS011;11317;51.072;17.036;2022-12-18T07:52:20;23.15;;;10.95;;
22298;SDS011;11317;51.072;17.036;2022-12-18T07:54:46;24.42;;;10.20;;
22298;SDS011;11317;51.072;17.036;2022-12-18T07:57:14;25.17;;;10.88;;
22298;SDS011;11317;51.072;17.036;2022-12-18T07:59:41;20.80;;;10.82;;
22298;SDS011;11317;51.072;17.036;2022-12-18T08:02:07;24.88;;;9.23;;
22298;SDS011;11317;51.072;17.036;2022-12-18T08:04:33;25.38;;;10.73;;
22298;SDS011;11317;51.072;17.036;2022-12-18T08:06:59;25.40;;;10.25;;
22298;SDS011;11317;51.072;17.036;2022-12-18T08:09:25;26.27;;;10.20;;
22298;SDS011;11317;51.072;17.036;2022-12-18T08:11:51;27.45;;;9.88;;
22298;SDS011;11317;51.072;17.036;2022-12-18T08:14:17;22.33;;;9.65;;
22298;SDS011;11317;51.072;17.036;2022-12-18T08:16:43;26.10;;;10.13;;
22298;SDS011;11317;51.072;17.036;2022-12-18T08:19:09;18.63;;;10.07;;
22298;SDS011;11317;51.072;17.036;2022-12-18T08:21:35;20.92;;;9.45;;
22298;SDS011;11317;51.072;17.036;2022-12-18T08:24:01;19.85;;;9.60;;
22298;SDS011;11317;51.072;17.036;2022-12-18T08:26:28;19.88;;;9.20;;
22298;SDS011;11317;51.072;17.036;2022-12-18T08:28:55;20.52;;;8.88;;
22298;SDS011;11317;51.072;17.036;2022-12-18T08:31:22;21.00;;;9.00;;
22298;SDS011;11317;51.072;17.036;2022-12-18T08:33:49;22.00;;;9.80;;
22298;SDS011;11317;51.072;17.036;2022-12-18T08:36:16;25.27;;;9.38;;
22298;SDS011;11317;51.072;17.036;2022-12-18T08:38:43;25.15;;;10.45;;
22298;SDS011;11317;51.072;17.036;2022-12-18T08:41:13;25.73;;;10.27;;
22298;SDS011;11317;51.072;17.036;2022-12-18T08:43:40;24.23;;;9.25;;
22298;SDS011;11317;51.072;17.036;2022-12-18T08:46:25;24.85;;;9.15;;
22298;SDS011;11317;51.072;17.036;2022-12-18T08:48:52;29.30;;;10.48;;
22298;SDS011;11317;51.072;17.036;2022-12-18T08:51:19;24.23;;;9.93;;
22298;SDS011;11317;51.072;17.036;2022-12-18T08:53:45;26.17;;;10.10;;
22298;SDS011;11317;51.072;17.036;2022-12-18T08:56:12;22.33;;;8.90;;
22298;SDS011;11317;51.072;17.036;2022-12-18T08:58:39;26.08;;;10.20;;
22298;SDS011;11317;51.072;17.036;2022-12-18T09:01:06;24.13;;;9.82;;
22298;SDS011;11317;51.072;17.036;2022-12-18T09:03:37;22.13;;;9.73;;
22298;SDS011;11317;51.072;17.036;2022-12-18T09:06:03;19.77;;;9.30;;
22298;SDS011;11317;51.072;17.036;2022-12-18T09:08:29;24.75;;;9.93;;
22298;SDS011;11317;51.072;17.036;2022-12-18T09:10:55;23.30;;;9.93;;
22298;SDS011;11317;51.072;17.036;2022-12-18T09:13:21;24.90;;;9.90;;
22298;SDS011;11317;51.072;17.036;2022-12-18T09:15:48;31.50;;;10.63;;
22298;SDS011;11317;51.072;17.036;2022-12-18T09:18:16;20.52;;;9.73;;
22298;SDS011;11317;51.072;17.036;2022-12-18T09:20:43;22.88;;;10.45;;
22298;SDS011;11317;51.072;17.036;2022-12-18T09:23:10;19.77;;;9.52;;
22298;SDS011;11317;51.072;17.036;2022-12-18T09:25:36;23.77;;;11.40;;
22298;SDS011;11317;51.072;17.036;2022-12-18T09:28:06;21.30;;;9.32;;
22298;SDS011;11317;51.072;17.036;2022-12-18T09:30:37;21.95;;;9.45;;
22298;SDS011;11317;51.072;17.036;2022-12-18T09:33:03;24.35;;;10.15;;
22298;SDS011;11317;51.072;17.036;2022-12-18T09:35:29;23.13;;;10.13;;
22298;SDS011;11317;51.072;17.036;2022-12-18T09:37:55;26.50;;;9.95;;
22298;SDS011;11317;51.072;17.036;2022-12-18T09:40:26;30.08;;;11.48;;
22298;SDS011;11317;51.072;17.036;2022-12-18T09:42:58;26.23;;;10.70;;
22298;SDS011;11317;51.072;17.036;2022-12-18T09:45:29;29.25;;;10.93;;
22298;SDS011;11317;51.072;17.036;2022-12-18T09:48:00;27.35;;;11.80;;
22298;SDS011;11317;51.072;17.036;2022-12-18T09:50:28;26.25;;;10.75;;
22298;SDS011;11317;51.072;17.036;2022-12-18T09:52:59;27.60;;;10.38;;
22298;SDS011;11317;51.072;17.036;2022-12-18T09:55:37;30.25;;;11.45;;
22298;SDS011;11317;51.072;17.036;2022-12-18T10:00:55;32.70;;;10.30;;
22298;SDS011;11317;51.072;17.036;2022-12-18T10:03:22;29.67;;;9.63;;
22298;SDS011;11317;51.072;17.036;2022-12-18T10:13:46;22.70;;;9.18;;
22298;SDS011;11317;51.072;17.036;2022-12-18T10:27:18;25.60;;;8.68;;
22298;SDS011;11317;51.072;17.036;2022-12-18T10:29:48;23.90;;;9.45;;
22298;SDS011;11317;51.072;17.036;2022-12-18T10:32:18;31.95;;;11.15;;
22298;SDS011;11317;51.072;17.036;2022-12-18T10:34:47;32.37;;;11.33;;
22298;SDS011;11317;51.072;17.036;2022-12-18T10:37:18;26.38;;;11.98;;
22298;SDS011;11317;51.072;17.036;2022-12-18T10:39:46;39.28;;;12.43;;
22298;SDS011;11317;51.072;17.036;2022-12-18T10:42:29;30.83;;;10.95;;
22298;SDS011;11317;51.072;17.036;2022-12-18T10:47:42;23.50;;;12.05;;
22298;SDS011;11317;51.072;17.036;2022-12-18T10:50:18;30.77;;;10.68;;
22298;SDS011;11317;51.072;17.036;2022-12-18T10:52:58;28.98;;;11.77;;
22298;SDS011;11317;51.072;17.036;2022-12-18T10:55:31;24.27;;;10.02;;
22298;SDS011;11317;51.072;17.036;2022-12-18T11:03:39;36.05;;;12.10;;
22298;SDS011;11317;51.072;17.036;2022-12-18T11:06:23;28.05;;;12.48;;
22298;SDS011;11317;51.072;17.036;2022-12-18T11:08:57;28.80;;;13.75;;
22298;SDS011;11317;51.072;17.036;2022-12-18T11:11:31;26.67;;;11.23;;
22298;SDS011;11317;51.072;17.036;2022-12-18T11:13:59;24.02;;;9.30;;
22298;SDS011;11317;51.072;17.036;2022-12-18T11:16:33;25.23;;;11.73;;
22298;SDS011;11317;51.072;17.036;2022-12-18T11:21:56;27.35;;;12.27;;
22298;SDS011;11317;51.072;17.036;2022-12-18T11:24:26;21.73;;;9.60;;
22298;SDS011;11317;51.072;17.036;2022-12-18T11:26:56;21.10;;;9.27;;
22298;SDS011;11317;51.072;17.036;2022-12-18T11:29:32;24.48;;;9.52;;
22298;SDS011;11317;51.072;17.036;2022-12-18T11:34:39;21.75;;;9.13;;
22298;SDS011;11317;51.072;17.036;2022-12-18T11:37:10;27.60;;;9.45;;
22298;SDS011;11317;51.072;17.036;2022-12-18T11:39:57;21.33;;;8.05;;
22298;SDS011;11317;51.072;17.036;2022-12-18T11:42:39;24.10;;;10.40;;
22298;SDS011;11317;51.072;17.036;2022-12-18T11:50:20;27.20;;;11.80;;
22298;SDS011;11317;51.072;17.036;2022-12-18T11:52:50;23.02;;;9.88;;
22298;SDS011;11317;51.072;17.036;2022-12-18T11:55:17;20.05;;;9.38;;
22298;SDS011;11317;51.072;17.036;2022-12-18T11:58:00;24.02;;;9.57;;
22298;SDS011;11317;51.072;17.036;2022-12-18T12:00:29;20.75;;;9.63;;
22298;SDS011;11317;51.072;17.036;2022-12-18T12:19:38;34.53;;;10.85;;
22298;SDS011;11317;51.072;17.036;2022-12-18T12:38:42;32.03;;;11.30;;
22298;SDS011;11317;51.072;17.036;2022-12-18T12:41:30;28.63;;;11.88;;
22298;SDS011;11317;51.072;17.036;2022-12-18T12:44:20;26.77;;;10.88;;
22298;SDS011;11317;51.072;17.036;2022-12-18T12:46:50;29.00;;;10.75;;
22298;SDS011;11317;51.072;17.036;2022-12-18T12:49:20;29.58;;;13.07;;
22298;SDS011;11317;51.072;17.036;2022-12-18T12:52:07;32.83;;;12.60;;
22298;SDS011;11317;51.072;17.036;2022-12-18T12:54:39;26.20;;;11.90;;
22298;SDS011;11317;51.072;17.036;2022-12-18T12:59:52;37.17;;;13.32;;
22298;SDS011;11317;51.072;17.036;2022-12-18T13:02:33;35.58;;;13.27;;
22298;SDS011;11317;51.072;17.036;2022-12-18T13:05:14;32.72;;;11.52;;
22298;SDS011;11317;51.072;17.036;2022-12-18T13:08:02;25.40;;;11.20;;
22298;SDS011;11317;51.072;17.036;2022-12-18T13:13:01;28.50;;;11.95;;
22298;SDS011;11317;51.072;17.036;2022-12-18T13:15:38;36.47;;;12.35;;
22298;SDS011;11317;51.072;17.036;2022-12-18T13:18:18;42.88;;;12.50;;
22298;SDS011;11317;51.072;17.036;2022-12-18T13:20:47;27.35;;;11.90;;
22298;SDS011;11317;51.072;17.036;2022-12-18T13:26:00;25.80;;;11.82;;
22298;SDS011;11317;51.072;17.036;2022-12-18T13:31:14;29.20;;;12.73;;
22298;SDS011;11317;51.072;17.036;2022-12-18T13:36:55;38.70;;;14.30;;
22298;SDS011;11317;51.072;17.036;2022-12-18T13:39:41;35.20;;;12.55;;
22298;SDS011;11317;51.072;17.036;2022-12-18T13:44:37;31.48;;;11.82;;
22298;SDS011;11317;51.072;17.036;2022-12-18T13:50:09;34.47;;;12.27;;
22298;SDS011;11317;51.072;17.036;2022-12-18T13:52:49;33.15;;;13.15;;
22298;SDS011;11317;51.072;17.036;2022-12-18T13:55:18;35.85;;;12.50;;
22298;SDS011;11317;51.072;17.036;2022-12-18T13:57:44;34.70;;;13.15;;
22298;SDS011;11317;51.072;17.036;2022-12-18T14:00:27;37.15;;;12.07;;
22298;SDS011;11317;51.072;17.036;2022-12-18T14:02:54;37.60;;;14.93;;
22298;SDS011;11317;51.072;17.036;2022-12-18T14:05:27;39.97;;;13.18;;
22298;SDS011;11317;51.072;17.036;2022-12-18T14:08:08;27.77;;;14.55;;
22298;SDS011;11317;51.072;17.036;2022-12-18T14:10:44;36.65;;;13.23;;
22298;SDS011;11317;51.072;17.036;2022-12-18T14:13:14;40.05;;;12.45;;
22298;SDS011;11317;51.072;17.036;2022-12-18T14:15:46;32.85;;;10.73;;
22298;SDS011;11317;51.072;17.036;2022-12-18T14:20:50;35.80;;;12.98;;
22298;SDS011;11317;51.072;17.036;2022-12-18T14:26:18;39.95;;;13.57;;
22298;SDS011;11317;51.072;17.036;2022-12-18T14:28:47;47.17;;;13.57;;
22298;SDS011;11317;51.072;17.036;2022-12-18T14:31:17;32.30;;;13.93;;
22298;SDS011;11317;51.072;17.036;2022-12-18T14:33:47;34.30;;;13.23;;
22298;SDS011;11317;51.072;17.036;2022-12-18T14:36:21;35.22;;;12.88;;
22298;SDS011;11317;51.072;17.036;2022-12-18T14:38:52;41.22;;;14.05;;
22298;SDS011;11317;51.072;17.036;2022-12-18T14:41:20;37.03;;;11.80;;
22298;SDS011;11317;51.072;17.036;2022-12-18T14:43:48;40.53;;;15.93;;
22298;SDS011;11317;51.072;17.036;2022-12-18T14:46:36;51.95;;;17.50;;
22298;SDS011;11317;51.072;17.036;2022-12-18T14:51:54;39.80;;;15.07;;
22298;SDS011;11317;51.072;17.036;2022-12-18T14:54:22;37.53;;;13.00;;
22298;SDS011;11317;51.072;17.036;2022-12-18T14:56:56;43.53;;;15.05;;
22298;SDS011;11317;51.072;17.036;2022-12-18T14:59:27;37.97;;;14.73;;
22298;SDS011;11317;51.072;17.036;2022-12-18T15:04:36;38.38;;;14.77;;
22298;SDS011;11317;51.072;17.036;2022-12-18T15:07:12;33.33;;;14.10;;
22298;SDS011;11317;51.072;17.036;2022-12-18T15:18:03;41.72;;;15.30;;
22298;SDS011;11317;51.072;17.036;2022-12-18T15:20:54;36.92;;;12.85;;
22298;SDS011;11317;51.072;17.036;2022-12-18T15:23:24;40.72;;;14.13;;
22298;SDS011;11317;51.072;17.036;2022-12-18T15:26:08;37.25;;;15.55;;
22298;SDS011;11317;51.072;17.036;2022-12-18T15:31:21;37.78;;;13.15;;
22298;SDS011;11317;51.072;17.036;2022-12-18T15:36:25;30.88;;;13.02;;
22298;SDS011;11317;51.072;17.036;2022-12-18T15:38:53;41.47;;;14.27;;
22298;SDS011;11317;51.072;17.036;2022-12-18T15:41:20;38.45;;;14.90;;
22298;SDS011;11317;51.072;17.036;2022-12-18T15:43:47;51.28;;;15.52;;
22298;SDS011;11317;51.072;17.036;2022-12-18T15:46:16;53.78;;;17.83;;
22298;SDS011;11317;51.072;17.036;2022-12-18T15:48:48;43.70;;;13.18;;
22298;SDS011;11317;51.072;17.036;2022-12-18T15:51:22;53.15;;;15.00;;
22298;SDS011;11317;51.072;17.036;2022-12-18T15:53:58;45.80;;;16.58;;
22298;SDS011;11317;51.072;17.036;2022-12-18T15:56:24;44.22;;;16.83;;
22298;SDS011;11317;51.072;17.036;2022-12-18T15:59:10;42.85;;;15.75;;
22298;SDS011;11317;51.072;17.036;2022-12-18T16:01:37;40.65;;;18.55;;
22298;SDS011;11317;51.072;17.036;2022-12-18T16:04:04;44.80;;;17.63;;
22298;SDS011;11317;51.072;17.036;2022-12-18T16:06:29;40.28;;;14.25;;
22298;SDS011;11317;51.072;17.036;2022-12-18T16:08:55;51.08;;;18.35;;
22298;SDS011;11317;51.072;17.036;2022-12-18T16:14:19;55.22;;;19.92;;
22298;SDS011;11317;51.072;17.036;2022-12-18T16:16:46;48.28;;;16.90;;
22298;SDS011;11317;51.072;17.036;2022-12-18T16:19:14;39.80;;;16.17;;
22298;SDS011;11317;51.072;17.036;2022-12-18T16:21:40;54.08;;;20.58;;
22298;SDS011;11317;51.072;17.036;2022-12-18T16:24:09;50.85;;;17.30;;
22298;SDS011;11317;51.072;17.036;2022-12-18T16:26:48;48.13;;;19.48;;
22298;SDS011;11317;51.072;17.036;2022-12-18T16:29:16;45.97;;;16.98;;
22298;SDS011;11317;51.072;17.036;2022-12-18T16:31:42;59.08;;;21.15;;
22298;SDS011;11317;51.072;17.036;2022-12-18T16:36:40;44.42;;;17.00;;
22298;SDS011;11317;51.072;17.036;2022-12-18T16:39:06;42.85;;;16.85;;
22298;SDS011;11317;51.072;17.036;2022-12-18T16:41:32;44.88;;;16.13;;
22298;SDS011;11317;51.072;17.036;2022-12-18T16:43:59;35.85;;;15.50;;
22298;SDS011;11317;51.072;17.036;2022-12-18T16:46:25;43.53;;;16.20;;
22298;SDS011;11317;51.072;17.036;2022-12-18T16:48:50;46.08;;;16.67;;
22298;SDS011;11317;51.072;17.036;2022-12-18T16:51:16;40.10;;;17.10;;
22298;SDS011;11317;51.072;17.036;2022-12-18T16:53:43;41.35;;;14.60;;